Diese Webseite verwendet Cookies

Diese Seite verwendet Cookies, um Ihnen dieses Angebot leicht zugänglich zu machen, Inhalte zu personalisieren, Ihre Zugriffe auf die Webseite zu analysieren und Ihnen ggf. personalisierte Angebote unterbreiten zu können. Hierzu kann es notwendig sein, dass die Informationen über Ihre Verwendung der Webseite an Partner weitergegeben werden. Diese führen die gesammelten Informationen möglicherweise mit weiteren Daten zusammen, die Sie an anderer Stelle bereitgestellt haben. Eine Weitergabe erfolgt dabei aber nur mit Ihrer Einwilligung und unter Beachtung der datenschutzrechtlichen Vorgaben. Weiterführende Informationen über die hier verwendeten Cookies erfahren Sie in den folgenden Erklärungen zu den jeweiligen Cookies.

Notwendige Cookies helfen dabei, Ihnen die Funktionen der Webseite zugängig zu machen, indem sie Grundfunktionen die zuletzt angesehen Wertpapiere und Ihre Entscheidung für oder gegen die Nutzung der jeweiligen Cookies speichert. Die Webseite wird ohne diese Cookies nicht so funktionieren, wie es geplant ist.

Name Anbieter Zweck Ablauf Typ Verantwortlicher
CookieConsent266 Moneyspecial Um diese Cookiebar auszublenden. 1 Jahr http Infront Financial Technology GmbH
Die Cookie-Erklärung wurde das letzte Mal am 02.07.2020 von Infront Financial Technology GmbH aktualisiert.
Drucken

Indexkurslisten

ZeitKursKurs (Vortag)% (Vortag)Kurs (1 Jahr)% (1 Jahr)
Gewinner
AVERY DENNISON ... 03.07.20 104,00 104,00 +4,00 0,709 +0,68%
MOLSON COORS BEV B... 03.07.20 31,80 31,80 +1,76 -10,859 -34,15%
AT&T 03.07.20 27,14 27,14 +1,40 -1,212 -4,47%
BECTON DICKINSN 03.07.20 217,95 217,95 +1,35 -3,376 -1,55%
DEXCOM INC. ... 03.07.20 361,00 361,00 +1,32 658,565 +182,43%
BAXTER 03.07.20 78,13 78,13 +1,24 7,755 +9,93%
APPLIED MATLS 03.07.20 54,65 54,65 +1,05 22,144 +40,52%
BRISTOL MYERS 03.07.20 52,99 52,99 +0,93 16,997 +32,08%
AIR PROD. CHEM. ... 03.07.20 220,00 220,00 +0,92 23,190 +10,54%
AVALONBAY COMM. ... 03.07.20 142,00 142,00 +0,71 -26,812 -18,88%
AMER. EXPRESS 03.07.20 84,45 84,45 +0,64 -18,941 -22,43%
CELANESE CORP... 03.07.20 78,50 78,50 +0,64 -12,092 -15,40%
EXTRA SPACE ST.SBI... 03.07.20 86,00 86,00 +0,58 -4,784 -5,56%
ATMOS EN. CORP. 03.07.20 89,50 89,50 +0,56 -1,973 -2,21%
SVB FINL GROUP ... 03.07.20 185,00 185,00 +0,54 -6,521 -3,53%
ADOBE 03.07.20 398,95 398,95 +0,52 196,156 +49,17%
CATERPILLAR 03.07.20 115,04 115,04 +0,51 -1,613 -1,40%
COCA COLA 03.07.20 40,21 40,21 +0,46 -4,243 -10,55%
HESS CORP. ... 03.07.20 45,60 45,60 +0,44 -7,095 -15,56%
AMAZON 03.07.20 2.592,00 2.592,00 +0,39 1.321,350 +50,98%
ALASKA AIR GRP INC. ... 03.07.20 32,41 32,41 +0,36 -13,188 -40,69%
CARNIVAL 03.07.20 14,29 14,29 +0,32 -9,157 -64,06%
CITRIX 03.07.20 134,66 134,66 +0,24 73,561 +54,63%
AMD 03.07.20 46,70 46,70 +0,18 31,636 +67,74%
AMER. ELEC PWR 03.07.20 73,46 73,46 +0,15 -2,882 -3,92%
CENTENE CORP. ... 03.07.20 58,93 58,93 +0,14 17,579 +29,83%
BK OF NY MELLON 03.07.20 33,75 33,75 +0,13 -3,803 -11,27%
DIGITAL REALTY TR... 03.07.20 131,60 131,60 +0,12 39,104 +29,71%
BK OF AMERICA 03.07.20 20,79 20,79 +0,07 -3,566 -17,15%
COLGATE PALMO. 03.07.20 65,28 65,28 +0,05 1,998 +3,06%
ALBEMARLE CORP. ... 03.07.20 69,67 69,67 +0,04 9,846 +14,13%

Verlierer
TRANSDIGM GROUP ... 03.07.20 385,50 385,50 -3,77 0,146 +0,04%
BERKLEY CORP. ... 03.07.20 50,00 50,00 -2,91 -7,643 -15,29%
NRG ENERGY INC. ... 03.07.20 29,00 29,00 -2,68 -1,273 -4,39%
APACHE 03.07.20 11,68 11,68 -2,50 -5,853 -50,11%
CINTAS 03.07.20 237,90 237,90 -2,42 30,772 +12,94%
MASTERCARD 03.07.20 264,60 264,60 -2,36 27,992 +10,58%
FIDELITY NATL INF... 03.07.20 120,92 120,92 -2,28 12,593 +10,41%
BOSTON SCIENT. 03.07.20 31,26 31,26 -2,08 -5,215 -16,68%
COMERICA 03.07.20 31,20 31,20 -1,89 -14,730 -47,21%
UNDER ARMOUR A... 03.07.20 8,44 8,44 -1,84 -5,281 -62,58%
CONAGRA FOODS 03.07.20 31,31 31,31 -1,68 11,789 +37,65%
BOEING 03.07.20 159,04 159,04 -1,64 -76,772 -48,27%
FRANKLIN RES INC. ... 03.07.20 18,00 18,00 -1,64 -7,228 -40,15%
AMERIPRISE 03.07.20 129,00 129,00 -1,53 3,028 +2,35%
AES 03.07.20 12,83 12,83 -1,40 -1,447 -11,28%
AFLAC 03.07.20 31,43 31,43 -1,33 -11,254 -35,80%
COMCAST 03.07.20 34,94 34,94 -1,33 -2,078 -5,95%
ARCHER DANIELS 03.07.20 35,03 35,03 -1,30 -0,518 -1,48%
ALTRIA 03.07.20 34,74 34,74 -1,28 -4,717 -13,58%
BROWN-FORMAN CORP B... 03.07.20 57,03 57,03 -1,25 8,531 +14,96%
ALLSTATE 03.07.20 83,50 83,50 -1,18 -6,671 -7,99%
MARKETAXESS HLDGS... 03.07.20 441,40 441,40 -1,10 232,070 +52,58%
BEST BUY 03.07.20 78,00 78,00 -1,07 19,746 +25,32%
AUTOZONE INC. ... 03.07.20 1.009,50 1.009,50 -1,03 25,944 +2,57%
BIO-RAD LABS... 03.07.20 402,00 402,00 -0,99 183,730 +45,70%
CMS ENERGY CORP. ... 03.07.20 53,00 53,00 -0,93 3,201 +6,04%
CERNER CORP. ... 03.07.20 62,00 62,00 -0,93 -3,168 -5,11%
CAPITAL ONE 03.07.20 54,00 54,00 -0,92 -17,361 -32,15%
CHIPOTLE MEX.GR. DL... 03.07.20 937,90 937,90 -0,89 440,869 +47,01%
CARDINAL HEALTH... 03.07.20 45,91 45,91 -0,89 7,095 +15,46%
LAS VEGAS SANDS ... 03.07.20 41,17 41,17 -0,88 -8,759 -21,27%
SMITH -A.O.- CORP. ... 03.07.20 41,67 41,67 -0,83 1,047 +2,51%
AMGEN 03.07.20 229,05 229,05 -0,78 94,435 +41,23%
AMEREN CORP. ... 03.07.20 64,50 64,50 -0,77 -0,684 -1,06%
AGILENT 03.07.20 78,64 78,64 -0,76 14,376 +18,28%
ANALOG DEVICES 03.07.20 107,48 107,48 -0,74 10,287 +9,57%
CME GROUP 03.07.20 148,10 148,10 -0,74 -20,226 -13,66%
CUMMINS INC. DL... 03.07.20 154,00 154,00 -0,65 6,043 +3,92%
BORGWARNER INC. ... 03.07.20 31,20 31,20 -0,64 -3,847 -12,33%
CHEVRON 03.07.20 78,62 78,62 -0,63 -18,657 -23,73%
SCHLUMBERGER 03.07.20 15,95 15,95 -0,62 -8,154 -51,13%
CLOROX 03.07.20 197,66 197,66 -0,60 97,195 +49,17%
CISCO 03.07.20 40,63 40,63 -0,60 -6,495 -15,98%
APPLE 03.07.20 324,05 324,05 -0,58 263,699 +81,38%
CENTERPOINT ENERGY... 03.07.20 17,10 17,10 -0,58 -5,071 -29,66%
BIOGEN 03.07.20 235,60 235,60 -0,57 27,841 +11,82%
AUTOM. DATA 03.07.20 133,40 133,40 -0,57 -6,658 -4,99%
AMERISOURCEBERGEN ... 03.07.20 89,00 89,00 -0,56 18,047 +20,28%
COSTCO 03.07.20 271,45 271,45 -0,55 45,889 +16,91%
SALESFORCE 03.07.20 172,00 172,00 -0,53 41,695 +24,24%
REGIONS FINL 03.07.20 9,40 9,40 -0,53 -2,367 -25,18%
CADENCE DESIGN SYS... 03.07.20 86,75 86,75 -0,44 27,567 +31,78%
AMETEK INC. ... 03.07.20 78,75 78,75 -0,40 -1,025 -1,30%
DOMINOS PIZZA INC... 03.07.20 331,10 331,10 -0,36 123,848 +37,41%
BLACKROCK CL. A DL... 03.07.20 493,30 493,30 -0,33 101,906 +20,66%
CONOCOPHILLIPS 03.07.20 37,13 37,13 -0,31 -10,434 -28,10%
CF INDS HLDGS ... 03.07.20 26,01 26,01 -0,27 -9,060 -34,83%
CHURCH + DWIGHT CO... 03.07.20 69,47 69,47 -0,23 3,760 +5,41%
ABBOTT LABS 03.07.20 82,15 82,15 -0,19 9,257 +11,27%
BALL CORP. 03.07.20 63,16 63,16 -0,08 -0,600 -0,95%

Mehr Marktdaten und Kurse finden Sie auf www.finanztreff.de